Provincetown, MA

1:02 PM EST on February 09, 2016 (GMT -0500)
Provincetown Center | | Change Station
CLOSE
Current Station
Personal Weather Station
Location: Provincetown, MA
Elevation: 33 ft
Nearby Weather Stations

Elev 33 ft 42.06 °N, 70.18 °W | Updated 10 minutes ago

Overcast
Overcast
32.0 °F
Feels Like 32 °F
N
0.0
Wind Variable Wind from West

Today
High -- | Low -- °F
--% Chance of Precip.
Yesterday
High -- | Low -- °F
Precip. -- in
Pressure 29.58 in
Visibility 10.0 miles
Clouds Overcast 2400 ft
Windchill 32 °F
Dew Point 26 °F
Humidity 79%
Rainfall 0.00 in
Snow Depth Not available.
6:45 AM 5:05 PM
New Moon, 2% visible
METAR KPVC 091756Z AUTO 02009KT 10SM OVC024 01/M03 A2958 RMK AO2 SLP015 T00061033 10011 21011 56036 FZRANO
Pressure 29.58 in
Visibility 10.0 miles
Clouds Overcast 2400 ft
Windchill 32 °F
Dew Point 26 °F
Humidity 79%
Rainfall 0.00 in
Snow Depth Not available.
6:45 AM 5:05 PM
New Moon, 2% visible
METAR KPVC 091756Z AUTO 02009KT 10SM OVC024 01/M03 A2958 RMK AO2 SLP015 T00061033 10011 21011 56036 FZRANO

10-Day Weather Forecast

Almanac

Astronomy

Feb. 09, 2016 Rise Set
Actual Time
Civil Twilight
Nautical Twilight
Astronomical Twilight
Moon
Length of Visible Light
Length of Day
Tomorrow will be .
, % of the Moon is Illuminated

Today's Extremes

State Highs State Lows

Community

WunderPhotos

Upload Photos

1,891,650 photos uploaded!

WunderBlog® & News

Nearby

Air Quality

  Air Quality AQ Index Pollutant
Not available.

Snow Depth

Station Depth Elevation

Earthquake Activity

City Distance Mag. Time & Date
Minimum magnitude displayed is 2.5.

Coastal Water Temperatures

Place Temperature

Stations

Nearby Weather Stations

Station Location Temp. Windchill Dew Point Humidity Wind Precip. Elev Updated Type
                   

Watches & Warnings

There are currently no watches in effect.